sensor_id;sensor_type;location;lat;lon;timestamp;P1;durP1;ratioP1;P2;durP2;ratioP2
14187;SDS011;7175;51.978;5.330;2022-11-20T00:01:11;23.40;;;21.70;;
14187;SDS011;7175;51.978;5.330;2022-11-20T00:03:40;22.20;;;20.67;;
14187;SDS011;7175;51.978;5.330;2022-11-20T00:06:10;22.17;;;20.57;;
14187;SDS011;7175;51.978;5.330;2022-11-20T00:08:39;22.87;;;21.23;;
14187;SDS011;7175;51.978;5.330;2022-11-20T00:11:08;24.43;;;22.73;;
14187;SDS011;7175;51.978;5.330;2022-11-20T00:13:43;22.73;;;21.13;;
14187;SDS011;7175;51.978;5.330;2022-11-20T00:16:12;22.73;;;21.10;;
14187;SDS011;7175;51.978;5.330;2022-11-20T00:18:41;24.07;;;22.37;;
14187;SDS011;7175;51.978;5.330;2022-11-20T00:21:10;23.70;;;22.00;;
14187;SDS011;7175;51.978;5.330;2022-11-20T00:23:40;23.60;;;21.90;;
14187;SDS011;7175;51.978;5.330;2022-11-20T00:26:09;25.87;;;24.07;;
14187;SDS011;7175;51.978;5.330;2022-11-20T00:28:39;25.70;;;23.90;;
14187;SDS011;7175;51.978;5.330;2022-11-20T00:31:10;26.30;;;24.50;;
14187;SDS011;7175;51.978;5.330;2022-11-20T00:33:39;26.60;;;24.80;;
14187;SDS011;7175;51.978;5.330;2022-11-20T00:36:08;26.67;;;24.77;;
14187;SDS011;7175;51.978;5.330;2022-11-20T00:38:38;27.73;;;25.83;;
14187;SDS011;7175;51.978;5.330;2022-11-20T00:41:06;28.60;;;26.60;;
14187;SDS011;7175;51.978;5.330;2022-11-20T00:43:36;33.67;;;31.27;;
14187;SDS011;7175;51.978;5.330;2022-11-20T00:46:05;33.30;;;31.03;;
14187;SDS011;7175;51.978;5.330;2022-11-20T00:48:36;31.83;;;29.73;;
14187;SDS011;7175;51.978;5.330;2022-11-20T00:51:04;33.57;;;31.37;;
14187;SDS011;7175;51.978;5.330;2022-11-20T00:53:32;33.60;;;31.40;;
14187;SDS011;7175;51.978;5.330;2022-11-20T00:56:02;34.20;;;31.90;;
14187;SDS011;7175;51.978;5.330;2022-11-20T00:58:32;33.13;;;30.93;;
14187;SDS011;7175;51.978;5.330;2022-11-20T01:01:01;35.50;;;33.20;;
14187;SDS011;7175;51.978;5.330;2022-11-20T01:03:31;38.10;;;35.70;;
14187;SDS011;7175;51.978;5.330;2022-11-20T01:06:02;40.20;;;37.60;;
14187;SDS011;7175;51.978;5.330;2022-11-20T01:08:31;37.07;;;34.77;;
14187;SDS011;7175;51.978;5.330;2022-11-20T01:11:00;38.00;;;35.60;;
14187;SDS011;7175;51.978;5.330;2022-11-20T01:13:29;40.87;;;38.27;;
14187;SDS011;7175;51.978;5.330;2022-11-20T01:16:04;40.30;;;37.80;;
14187;SDS011;7175;51.978;5.330;2022-11-20T01:18:34;42.20;;;39.23;;
14187;SDS011;7175;51.978;5.330;2022-11-20T01:21:05;39.43;;;37.03;;
14187;SDS011;7175;51.978;5.330;2022-11-20T01:23:36;40.70;;;38.20;;
14187;SDS011;7175;51.978;5.330;2022-11-20T01:26:06;44.10;;;41.40;;
14187;SDS011;7175;51.978;5.330;2022-11-20T01:28:35;42.03;;;39.43;;
14187;SDS011;7175;51.978;5.330;2022-11-20T01:31:10;40.97;;;38.47;;
14187;SDS011;7175;51.978;5.330;2022-11-20T01:33:39;43.33;;;40.73;;
14187;SDS011;7175;51.978;5.330;2022-11-20T01:36:10;41.53;;;39.03;;
14187;SDS011;7175;51.978;5.330;2022-11-20T01:38:39;41.03;;;38.53;;
14187;SDS011;7175;51.978;5.330;2022-11-20T01:41:08;41.00;;;38.50;;
14187;SDS011;7175;51.978;5.330;2022-11-20T01:43:36;43.20;;;40.60;;
14187;SDS011;7175;51.978;5.330;2022-11-20T01:46:05;43.90;;;41.30;;
14187;SDS011;7175;51.978;5.330;2022-11-20T01:48:42;41.47;;;38.97;;
14187;SDS011;7175;51.978;5.330;2022-11-20T01:51:18;45.07;;;42.37;;
14187;SDS011;7175;51.978;5.330;2022-11-20T01:53:51;44.90;;;42.20;;
14187;SDS011;7175;51.978;5.330;2022-11-20T01:56:21;44.43;;;41.80;;
14187;SDS011;7175;51.978;5.330;2022-11-20T01:58:51;49.33;;;46.43;;
14187;SDS011;7175;51.978;5.330;2022-11-20T02:01:23;49.83;;;46.93;;
14187;SDS011;7175;51.978;5.330;2022-11-20T02:03:51;50.10;;;47.20;;
14187;SDS011;7175;51.978;5.330;2022-11-20T02:06:23;49.17;;;46.27;;
14187;SDS011;7175;51.978;5.330;2022-11-20T02:08:53;48.47;;;45.67;;
14187;SDS011;7175;51.978;5.330;2022-11-20T02:11:22;51.67;;;48.67;;
14187;SDS011;7175;51.978;5.330;2022-11-20T02:13:50;53.87;;;50.73;;
14187;SDS011;7175;51.978;5.330;2022-11-20T02:16:19;53.90;;;50.80;;
14187;SDS011;7175;51.978;5.330;2022-11-20T02:18:50;53.70;;;50.60;;
14187;SDS011;7175;51.978;5.330;2022-11-20T02:21:27;53.03;;;50.03;;
14187;SDS011;7175;51.978;5.330;2022-11-20T02:24:02;54.07;;;50.97;;
14187;SDS011;7175;51.978;5.330;2022-11-20T02:26:33;53.23;;;50.23;;
14187;SDS011;7175;51.978;5.330;2022-11-20T02:29:05;56.30;;;53.10;;
14187;SDS011;7175;51.978;5.330;2022-11-20T02:31:35;53.77;;;50.67;;
14187;SDS011;7175;51.978;5.330;2022-11-20T02:34:05;55.73;;;52.53;;
14187;SDS011;7175;51.978;5.330;2022-11-20T02:36:34;52.07;;;49.07;;
14187;SDS011;7175;51.978;5.330;2022-11-20T02:39:05;54.60;;;51.50;;
14187;SDS011;7175;51.978;5.330;2022-11-20T02:41:34;55.13;;;52.03;;
14187;SDS011;7175;51.978;5.330;2022-11-20T02:44:04;55.57;;;52.43;;
14187;SDS011;7175;51.978;5.330;2022-11-20T02:46:32;54.30;;;51.10;;
14187;SDS011;7175;51.978;5.330;2022-11-20T02:49:01;54.37;;;51.20;;
14187;SDS011;7175;51.978;5.330;2022-11-20T02:51:30;54.17;;;51.07;;
14187;SDS011;7175;51.978;5.330;2022-11-20T02:53:59;54.20;;;51.00;;
14187;SDS011;7175;51.978;5.330;2022-11-20T02:56:29;53.60;;;50.50;;
14187;SDS011;7175;51.978;5.330;2022-11-20T02:58:57;54.57;;;51.47;;
14187;SDS011;7175;51.978;5.330;2022-11-20T03:01:25;55.80;;;52.60;;
14187;SDS011;7175;51.978;5.330;2022-11-20T03:03:53;57.37;;;54.07;;
14187;SDS011;7175;51.978;5.330;2022-11-20T03:06:23;55.33;;;52.13;;
14187;SDS011;7175;51.978;5.330;2022-11-20T03:08:51;56.80;;;53.50;;
14187;SDS011;7175;51.978;5.330;2022-11-20T03:11:23;55.10;;;51.90;;
14187;SDS011;7175;51.978;5.330;2022-11-20T03:13:53;57.13;;;53.90;;
14187;SDS011;7175;51.978;5.330;2022-11-20T03:16:22;57.47;;;54.10;;
14187;SDS011;7175;51.978;5.330;2022-11-20T03:18:51;62.93;;;59.30;;
14187;SDS011;7175;51.978;5.330;2022-11-20T03:21:19;61.73;;;58.23;;
14187;SDS011;7175;51.978;5.330;2022-11-20T03:23:48;59.40;;;56.00;;
14187;SDS011;7175;51.978;5.330;2022-11-20T03:26:16;61.73;;;58.30;;
14187;SDS011;7175;51.978;5.330;2022-11-20T03:28:47;61.97;;;58.47;;
14187;SDS011;7175;51.978;5.330;2022-11-20T03:31:18;59.33;;;55.93;;
14187;SDS011;7175;51.978;5.330;2022-11-20T03:33:47;58.27;;;54.97;;
14187;SDS011;7175;51.978;5.330;2022-11-20T03:36:17;57.33;;;54.03;;
14187;SDS011;7175;51.978;5.330;2022-11-20T03:38:46;58.97;;;55.67;;
14187;SDS011;7175;51.978;5.330;2022-11-20T03:41:17;59.90;;;56.50;;
14187;SDS011;7175;51.978;5.330;2022-11-20T03:43:47;63.60;;;60.00;;
14187;SDS011;7175;51.978;5.330;2022-11-20T03:46:17;62.20;;;58.60;;
14187;SDS011;7175;51.978;5.330;2022-11-20T03:48:46;58.90;;;55.60;;
14187;SDS011;7175;51.978;5.330;2022-11-20T03:51:18;59.53;;;56.13;;
14187;SDS011;7175;51.978;5.330;2022-11-20T03:53:47;59.23;;;55.90;;
14187;SDS011;7175;51.978;5.330;2022-11-20T03:56:18;58.83;;;55.53;;
14187;SDS011;7175;51.978;5.330;2022-11-20T03:58:49;58.97;;;55.67;;
14187;SDS011;7175;51.978;5.330;2022-11-20T04:01:19;57.60;;;54.30;;
14187;SDS011;7175;51.978;5.330;2022-11-20T04:03:49;61.30;;;57.90;;
14187;SDS011;7175;51.978;5.330;2022-11-20T04:06:19;61.43;;;58.03;;
14187;SDS011;7175;51.978;5.330;2022-11-20T04:08:49;64.17;;;60.20;;
14187;SDS011;7175;51.978;5.330;2022-11-20T04:11:20;59.10;;;55.70;;
14187;SDS011;7175;51.978;5.330;2022-11-20T04:13:52;61.43;;;57.93;;
14187;SDS011;7175;51.978;5.330;2022-11-20T04:16:23;57.73;;;54.43;;
14187;SDS011;7175;51.978;5.330;2022-11-20T04:18:53;58.57;;;55.27;;
14187;SDS011;7175;51.978;5.330;2022-11-20T04:21:22;62.60;;;59.10;;
14187;SDS011;7175;51.978;5.330;2022-11-20T04:23:51;60.20;;;56.80;;
14187;SDS011;7175;51.978;5.330;2022-11-20T04:26:20;60.13;;;56.73;;
14187;SDS011;7175;51.978;5.330;2022-11-20T04:28:49;60.87;;;57.47;;
14187;SDS011;7175;51.978;5.330;2022-11-20T04:31:18;60.93;;;57.53;;
14187;SDS011;7175;51.978;5.330;2022-11-20T04:33:49;63.07;;;59.57;;
14187;SDS011;7175;51.978;5.330;2022-11-20T04:36:18;62.03;;;58.53;;
14187;SDS011;7175;51.978;5.330;2022-11-20T04:38:50;64.00;;;60.40;;
14187;SDS011;7175;51.978;5.330;2022-11-20T04:41:23;65.07;;;61.47;;
14187;SDS011;7175;51.978;5.330;2022-11-20T04:43:53;67.27;;;63.47;;
14187;SDS011;7175;51.978;5.330;2022-11-20T04:46:26;66.10;;;62.40;;
14187;SDS011;7175;51.978;5.330;2022-11-20T04:48:56;62.47;;;58.97;;
14187;SDS011;7175;51.978;5.330;2022-11-20T04:51:25;61.90;;;58.40;;
14187;SDS011;7175;51.978;5.330;2022-11-20T04:53:53;62.83;;;59.23;;
14187;SDS011;7175;51.978;5.330;2022-11-20T04:56:21;66.07;;;62.37;;
14187;SDS011;7175;51.978;5.330;2022-11-20T04:58:50;62.50;;;58.90;;
14187;SDS011;7175;51.978;5.330;2022-11-20T05:01:19;63.60;;;59.90;;
14187;SDS011;7175;51.978;5.330;2022-11-20T05:03:48;64.27;;;60.57;;
14187;SDS011;7175;51.978;5.330;2022-11-20T05:06:21;64.30;;;60.60;;
14187;SDS011;7175;51.978;5.330;2022-11-20T05:08:49;62.90;;;59.30;;
14187;SDS011;7175;51.978;5.330;2022-11-20T05:11:19;64.60;;;60.90;;
14187;SDS011;7175;51.978;5.330;2022-11-20T05:13:49;61.70;;;58.20;;
14187;SDS011;7175;51.978;5.330;2022-11-20T05:16:19;63.97;;;60.37;;
14187;SDS011;7175;51.978;5.330;2022-11-20T05:18:49;65.87;;;62.17;;
14187;SDS011;7175;51.978;5.330;2022-11-20T05:21:21;66.57;;;62.87;;
14187;SDS011;7175;51.978;5.330;2022-11-20T05:23:49;70.40;;;66.50;;
14187;SDS011;7175;51.978;5.330;2022-11-20T05:26:18;72.17;;;68.17;;
14187;SDS011;7175;51.978;5.330;2022-11-20T05:28:47;69.37;;;65.47;;
14187;SDS011;7175;51.978;5.330;2022-11-20T05:31:16;77.73;;;73.43;;
14187;SDS011;7175;51.978;5.330;2022-11-20T05:33:52;75.63;;;71.57;;
14187;SDS011;7175;51.978;5.330;2022-11-20T05:36:23;74.93;;;70.93;;
14187;SDS011;7175;51.978;5.330;2022-11-20T05:38:52;75.10;;;71.00;;
14187;SDS011;7175;51.978;5.330;2022-11-20T05:41:27;74.37;;;69.97;;
14187;SDS011;7175;51.978;5.330;2022-11-20T05:43:55;74.20;;;70.20;;
14187;SDS011;7175;51.978;5.330;2022-11-20T05:46:24;74.43;;;70.43;;
14187;SDS011;7175;51.978;5.330;2022-11-20T05:48:55;72.73;;;68.80;;
14187;SDS011;7175;51.978;5.330;2022-11-20T05:51:26;74.47;;;70.37;;
14187;SDS011;7175;51.978;5.330;2022-11-20T05:53:55;75.80;;;71.70;;
14187;SDS011;7175;51.978;5.330;2022-11-20T05:56:24;75.70;;;71.60;;
14187;SDS011;7175;51.978;5.330;2022-11-20T05:58:52;74.60;;;70.60;;
14187;SDS011;7175;51.978;5.330;2022-11-20T06:01:21;74.70;;;70.70;;
14187;SDS011;7175;51.978;5.330;2022-11-20T06:03:51;74.87;;;70.83;;
14187;SDS011;7175;51.978;5.330;2022-11-20T06:06:20;74.30;;;70.30;;
14187;SDS011;7175;51.978;5.330;2022-11-20T06:08:49;75.70;;;71.60;;
14187;SDS011;7175;51.978;5.330;2022-11-20T06:11:17;73.57;;;69.57;;
14187;SDS011;7175;51.978;5.330;2022-11-20T06:13:46;74.83;;;70.83;;
14187;SDS011;7175;51.978;5.330;2022-11-20T06:16:14;70.23;;;66.33;;
14187;SDS011;7175;51.978;5.330;2022-11-20T06:18:45;71.07;;;67.17;;
14187;SDS011;7175;51.978;5.330;2022-11-20T06:21:14;68.90;;;65.00;;
14187;SDS011;7175;51.978;5.330;2022-11-20T06:23:43;69.00;;;65.20;;
14187;SDS011;7175;51.978;5.330;2022-11-20T06:26:14;68.30;;;64.50;;
14187;SDS011;7175;51.978;5.330;2022-11-20T06:28:43;69.90;;;66.00;;
14187;SDS011;7175;51.978;5.330;2022-11-20T06:31:12;69.40;;;65.50;;
14187;SDS011;7175;51.978;5.330;2022-11-20T06:33:42;69.87;;;65.97;;
14187;SDS011;7175;51.978;5.330;2022-11-20T06:36:11;68.60;;;64.80;;
14187;SDS011;7175;51.978;5.330;2022-11-20T06:38:40;69.90;;;66.00;;
14187;SDS011;7175;51.978;5.330;2022-11-20T06:41:10;70.23;;;66.33;;
14187;SDS011;7175;51.978;5.330;2022-11-20T06:43:41;70.80;;;66.90;;
14187;SDS011;7175;51.978;5.330;2022-11-20T06:46:09;69.97;;;66.07;;
14187;SDS011;7175;51.978;5.330;2022-11-20T06:48:38;70.60;;;66.43;;
14187;SDS011;7175;51.978;5.330;2022-11-20T06:51:07;67.63;;;63.73;;
14187;SDS011;7175;51.978;5.330;2022-11-20T06:53:36;72.27;;;68.17;;
14187;SDS011;7175;51.978;5.330;2022-11-20T06:56:04;76.37;;;72.17;;
14187;SDS011;7175;51.978;5.330;2022-11-20T06:58:33;73.47;;;69.37;;
14187;SDS011;7175;51.978;5.330;2022-11-20T07:01:05;73.67;;;69.60;;
14187;SDS011;7175;51.978;5.330;2022-11-20T07:03:34;74.40;;;70.30;;
14187;SDS011;7175;51.978;5.330;2022-11-20T07:06:03;77.10;;;72.90;;
14187;SDS011;7175;51.978;5.330;2022-11-20T07:08:32;81.47;;;77.17;;
14187;SDS011;7175;51.978;5.330;2022-11-20T07:11:01;81.00;;;76.60;;
14187;SDS011;7175;51.978;5.330;2022-11-20T07:13:31;82.93;;;78.43;;
14187;SDS011;7175;51.978;5.330;2022-11-20T07:15:59;91.20;;;85.77;;
14187;SDS011;7175;51.978;5.330;2022-11-20T07:18:30;89.30;;;84.47;;
14187;SDS011;7175;51.978;5.330;2022-11-20T07:20:59;90.00;;;85.10;;
14187;SDS011;7175;51.978;5.330;2022-11-20T07:23:28;90.87;;;85.87;;
14187;SDS011;7175;51.978;5.330;2022-11-20T07:25:56;89.43;;;84.50;;
14187;SDS011;7175;51.978;5.330;2022-11-20T07:28:24;91.67;;;86.67;;
14187;SDS011;7175;51.978;5.330;2022-11-20T07:30:53;100.37;;;94.67;;
14187;SDS011;7175;51.978;5.330;2022-11-20T07:33:21;98.97;;;93.57;;
14187;SDS011;7175;51.978;5.330;2022-11-20T07:35:50;99.73;;;94.23;;
14187;SDS011;7175;51.978;5.330;2022-11-20T07:38:19;101.20;;;95.60;;
14187;SDS011;7175;51.978;5.330;2022-11-20T07:40:47;100.47;;;94.87;;
14187;SDS011;7175;51.978;5.330;2022-11-20T07:43:15;102.70;;;97.00;;
14187;SDS011;7175;51.978;5.330;2022-11-20T07:45:43;99.57;;;93.87;;
14187;SDS011;7175;51.978;5.330;2022-11-20T07:48:11;99.70;;;93.90;;
14187;SDS011;7175;51.978;5.330;2022-11-20T07:50:39;99.07;;;93.27;;
14187;SDS011;7175;51.978;5.330;2022-11-20T07:53:09;98.00;;;92.20;;
14187;SDS011;7175;51.978;5.330;2022-11-20T07:55:38;99.67;;;93.77;;
14187;SDS011;7175;51.978;5.330;2022-11-20T07:58:07;101.73;;;95.47;;
14187;SDS011;7175;51.978;5.330;2022-11-20T08:00:35;99.03;;;93.03;;
14187;SDS011;7175;51.978;5.330;2022-11-20T08:03:04;99.37;;;93.27;;
14187;SDS011;7175;51.978;5.330;2022-11-20T08:05:32;97.57;;;91.57;;
14187;SDS011;7175;51.978;5.330;2022-11-20T08:08:01;93.67;;;87.77;;
14187;SDS011;7175;51.978;5.330;2022-11-20T08:10:31;98.83;;;92.57;;
14187;SDS011;7175;51.978;5.330;2022-11-20T08:12:59;98.30;;;92.10;;
14187;SDS011;7175;51.978;5.330;2022-11-20T08:15:47;101.23;;;94.97;;
14187;SDS011;7175;51.978;5.330;2022-11-20T08:18:17;105.67;;;99.07;;
14187;SDS011;7175;51.978;5.330;2022-11-20T08:21:01;100.10;;;93.77;;
14187;SDS011;7175;51.978;5.330;2022-11-20T08:23:31;99.73;;;93.33;;
14187;SDS011;7175;51.978;5.330;2022-11-20T08:26:00;96.03;;;89.80;;
14187;SDS011;7175;51.978;5.330;2022-11-20T08:28:29;96.40;;;90.10;;
14187;SDS011;7175;51.978;5.330;2022-11-20T08:31:00;96.73;;;90.50;;
14187;SDS011;7175;51.978;5.330;2022-11-20T08:33:28;98.33;;;92.03;;
14187;SDS011;7175;51.978;5.330;2022-11-20T08:35:59;98.20;;;91.80;;
14187;SDS011;7175;51.978;5.330;2022-11-20T08:38:28;102.07;;;95.57;;
14187;SDS011;7175;51.978;5.330;2022-11-20T08:40:57;101.40;;;94.80;;
14187;SDS011;7175;51.978;5.330;2022-11-20T08:43:44;101.73;;;95.23;;
14187;SDS011;7175;51.978;5.330;2022-11-20T08:46:12;102.30;;;95.80;;
14187;SDS011;7175;51.978;5.330;2022-11-20T08:48:40;100.13;;;93.63;;
14187;SDS011;7175;51.978;5.330;2022-11-20T08:51:09;100.50;;;94.10;;
14187;SDS011;7175;51.978;5.330;2022-11-20T08:53:38;102.50;;;96.00;;
14187;SDS011;7175;51.978;5.330;2022-11-20T08:56:06;103.43;;;96.90;;
14187;SDS011;7175;51.978;5.330;2022-11-20T08:58:35;103.37;;;96.77;;
14187;SDS011;7175;51.978;5.330;2022-11-20T09:01:26;113.03;;;105.67;;
14187;SDS011;7175;51.978;5.330;2022-11-20T09:03:55;104.73;;;98.13;;
14187;SDS011;7175;51.978;5.330;2022-11-20T09:06:24;108.70;;;101.80;;
14187;SDS011;7175;51.978;5.330;2022-11-20T09:08:52;107.20;;;100.40;;
14187;SDS011;7175;51.978;5.330;2022-11-20T09:11:20;106.77;;;99.97;;
14187;SDS011;7175;51.978;5.330;2022-11-20T09:13:49;102.27;;;95.87;;
14187;SDS011;7175;51.978;5.330;2022-11-20T09:16:17;101.77;;;95.47;;
14187;SDS011;7175;51.978;5.330;2022-11-20T09:18:49;101.00;;;94.80;;
14187;SDS011;7175;51.978;5.330;2022-11-20T09:21:37;101.57;;;95.27;;
14187;SDS011;7175;51.978;5.330;2022-11-20T09:24:06;99.20;;;93.07;;
14187;SDS011;7175;51.978;5.330;2022-11-20T09:26:34;98.53;;;92.43;;
14187;SDS011;7175;51.978;5.330;2022-11-20T09:29:02;99.07;;;92.97;;
14187;SDS011;7175;51.978;5.330;2022-11-20T09:31:31;100.40;;;94.20;;
14187;SDS011;7175;51.978;5.330;2022-11-20T09:34:00;98.30;;;92.20;;
14187;SDS011;7175;51.978;5.330;2022-11-20T09:36:29;95.63;;;89.63;;
14187;SDS011;7175;51.978;5.330;2022-11-20T09:38:57;96.20;;;90.10;;
14187;SDS011;7175;51.978;5.330;2022-11-20T09:41:32;94.53;;;88.53;;
14187;SDS011;7175;51.978;5.330;2022-11-20T09:44:09;92.30;;;86.50;;
14187;SDS011;7175;51.978;5.330;2022-11-20T09:46:48;91.13;;;85.43;;
14187;SDS011;7175;51.978;5.330;2022-11-20T09:49:26;93.27;;;87.30;;
14187;SDS011;7175;51.978;5.330;2022-11-20T09:52:04;91.87;;;86.17;;
14187;SDS011;7175;51.978;5.330;2022-11-20T09:54:41;90.57;;;84.97;;
14187;SDS011;7175;51.978;5.330;2022-11-20T09:57:10;88.20;;;82.80;;
14187;SDS011;7175;51.978;5.330;2022-11-20T09:59:41;87.37;;;82.07;;
14187;SDS011;7175;51.978;5.330;2022-11-20T10:02:19;80.07;;;75.17;;
14187;SDS011;7175;51.978;5.330;2022-11-20T10:04:57;79.17;;;74.27;;
14187;SDS011;7175;51.978;5.330;2022-11-20T10:07:32;77.83;;;73.03;;
14187;SDS011;7175;51.978;5.330;2022-11-20T10:10:13;74.97;;;70.37;;
14187;SDS011;7175;51.978;5.330;2022-11-20T10:12:48;70.97;;;66.47;;
14187;SDS011;7175;51.978;5.330;2022-11-20T10:15:31;71.90;;;67.40;;
14187;SDS011;7175;51.978;5.330;2022-11-20T10:18:11;71.57;;;67.07;;
14187;SDS011;7175;51.978;5.330;2022-11-20T10:20:53;72.07;;;67.57;;
14187;SDS011;7175;51.978;5.330;2022-11-20T10:23:30;69.53;;;64.30;;
14187;SDS011;7175;51.978;5.330;2022-11-20T10:26:16;63.27;;;59.10;;
14187;SDS011;7175;51.978;5.330;2022-11-20T10:28:53;59.10;;;55.30;;
14187;SDS011;7175;51.978;5.330;2022-11-20T10:31:35;59.40;;;55.60;;
14187;SDS011;7175;51.978;5.330;2022-11-20T10:34:06;60.07;;;56.27;;
14187;SDS011;7175;51.978;5.330;2022-11-20T10:36:50;59.33;;;55.53;;
14187;SDS011;7175;51.978;5.330;2022-11-20T10:39:26;60.43;;;56.53;;
14187;SDS011;7175;51.978;5.330;2022-11-20T10:42:01;61.90;;;58.00;;
14187;SDS011;7175;51.978;5.330;2022-11-20T10:44:32;63.57;;;59.57;;
14187;SDS011;7175;51.978;5.330;2022-11-20T10:47:22;64.33;;;60.33;;
14187;SDS011;7175;51.978;5.330;2022-11-20T10:49:51;62.60;;;58.60;;
14187;SDS011;7175;51.978;5.330;2022-11-20T10:52:23;61.67;;;57.77;;
14187;SDS011;7175;51.978;5.330;2022-11-20T10:55:02;60.67;;;56.83;;
14187;SDS011;7175;51.978;5.330;2022-11-20T10:57:46;59.40;;;55.60;;
14187;SDS011;7175;51.978;5.330;2022-11-20T11:00:21;58.47;;;54.77;;
14187;SDS011;7175;51.978;5.330;2022-11-20T11:02:50;60.17;;;56.30;;
14187;SDS011;7175;51.978;5.330;2022-11-20T11:05:25;60.30;;;56.50;;
14187;SDS011;7175;51.978;5.330;2022-11-20T11:08:03;60.23;;;56.43;;
14187;SDS011;7175;51.978;5.330;2022-11-20T11:10:39;57.97;;;54.20;;
14187;SDS011;7175;51.978;5.330;2022-11-20T11:13:21;58.67;;;54.87;;
14187;SDS011;7175;51.978;5.330;2022-11-20T11:15:51;56.97;;;53.10;;
14187;SDS011;7175;51.978;5.330;2022-11-20T11:18:23;58.40;;;53.73;;
14187;SDS011;7175;51.978;5.330;2022-11-20T11:20:53;55.13;;;51.53;;
14187;SDS011;7175;51.978;5.330;2022-11-20T11:23:31;55.90;;;52.20;;
14187;SDS011;7175;51.978;5.330;2022-11-20T11:26:02;56.53;;;52.73;;
14187;SDS011;7175;51.978;5.330;2022-11-20T11:28:32;57.90;;;54.00;;
14187;SDS011;7175;51.978;5.330;2022-11-20T11:31:01;57.03;;;53.23;;
14187;SDS011;7175;51.978;5.330;2022-11-20T11:33:31;57.13;;;53.33;;
14187;SDS011;7175;51.978;5.330;2022-11-20T11:36:01;57.10;;;53.23;;
14187;SDS011;7175;51.978;5.330;2022-11-20T11:38:34;57.10;;;52.90;;
14187;SDS011;7175;51.978;5.330;2022-11-20T11:41:04;61.70;;;57.23;;
14187;SDS011;7175;51.978;5.330;2022-11-20T11:43:37;60.13;;;55.83;;
14187;SDS011;7175;51.978;5.330;2022-11-20T11:46:27;62.83;;;58.43;;
14187;SDS011;7175;51.978;5.330;2022-11-20T11:48:59;63.87;;;59.30;;
14187;SDS011;7175;51.978;5.330;2022-11-20T11:51:31;68.77;;;63.97;;
14187;SDS011;7175;51.978;5.330;2022-11-20T11:54:10;71.13;;;66.23;;
14187;SDS011;7175;51.978;5.330;2022-11-20T11:56:46;71.90;;;66.90;;
14187;SDS011;7175;51.978;5.330;2022-11-20T11:59:17;71.97;;;66.97;;
14187;SDS011;7175;51.978;5.330;2022-11-20T12:01:54;74.90;;;69.73;;
14187;SDS011;7175;51.978;5.330;2022-11-20T12:04:34;75.53;;;70.33;;
14187;SDS011;7175;51.978;5.330;2022-11-20T12:07:10;76.13;;;70.83;;
14187;SDS011;7175;51.978;5.330;2022-11-20T12:10:05;77.50;;;72.10;;
14187;SDS011;7175;51.978;5.330;2022-11-20T12:12:44;74.80;;;69.50;;
14187;SDS011;7175;51.978;5.330;2022-11-20T12:15:22;76.63;;;71.23;;
14187;SDS011;7175;51.978;5.330;2022-11-20T12:17:56;77.07;;;71.57;;
14187;SDS011;7175;51.978;5.330;2022-11-20T12:20:27;75.40;;;70.00;;
14187;SDS011;7175;51.978;5.330;2022-11-20T12:23:01;76.07;;;70.67;;
14187;SDS011;7175;51.978;5.330;2022-11-20T12:25:38;79.37;;;73.37;;
14187;SDS011;7175;51.978;5.330;2022-11-20T12:28:14;76.00;;;70.50;;
14187;SDS011;7175;51.978;5.330;2022-11-20T12:30:56;74.90;;;69.40;;
14187;SDS011;7175;51.978;5.330;2022-11-20T12:33:49;74.90;;;69.40;;
14187;SDS011;7175;51.978;5.330;2022-11-20T12:36:32;76.57;;;71.00;;
14187;SDS011;7175;51.978;5.330;2022-11-20T12:39:14;74.33;;;67.10;;
14187;SDS011;7175;51.978;5.330;2022-11-20T12:42:08;72.63;;;67.23;;
14187;SDS011;7175;51.978;5.330;2022-11-20T12:45:11;71.43;;;66.13;;
14187;SDS011;7175;51.978;5.330;2022-11-20T12:47:51;72.60;;;67.10;;
14187;SDS011;7175;51.978;5.330;2022-11-20T12:50:51;68.33;;;63.27;;
14187;SDS011;7175;51.978;5.330;2022-11-20T12:53:43;68.70;;;63.60;;
14187;SDS011;7175;51.978;5.330;2022-11-20T12:56:25;66.97;;;61.97;;
14187;SDS011;7175;51.978;5.330;2022-11-20T12:59:09;68.87;;;63.80;;
14187;SDS011;7175;51.978;5.330;2022-11-20T13:01:50;69.30;;;64.20;;
14187;SDS011;7175;51.978;5.330;2022-11-20T13:04:39;70.70;;;65.50;;
14187;SDS011;7175;51.978;5.330;2022-11-20T13:07:27;69.07;;;63.87;;
14187;SDS011;7175;51.978;5.330;2022-11-20T13:09:57;68.90;;;63.90;;
14187;SDS011;7175;51.978;5.330;2022-11-20T13:12:29;66.90;;;61.90;;
14187;SDS011;7175;51.978;5.330;2022-11-20T13:15:05;65.33;;;60.43;;
14187;SDS011;7175;51.978;5.330;2022-11-20T13:17:43;65.40;;;60.40;;
14187;SDS011;7175;51.978;5.330;2022-11-20T13:20:17;66.37;;;61.33;;
14187;SDS011;7175;51.978;5.330;2022-11-20T13:22:47;66.80;;;61.70;;
14187;SDS011;7175;51.978;5.330;2022-11-20T13:25:24;66.73;;;61.63;;
14187;SDS011;7175;51.978;5.330;2022-11-20T13:27:54;66.07;;;61.07;;
14187;SDS011;7175;51.978;5.330;2022-11-20T13:30:26;64.20;;;59.30;;
14187;SDS011;7175;51.978;5.330;2022-11-20T13:32:56;67.87;;;62.77;;
14187;SDS011;7175;51.978;5.330;2022-11-20T13:35:28;65.47;;;60.47;;
14187;SDS011;7175;51.978;5.330;2022-11-20T13:38:00;66.10;;;60.90;;
14187;SDS011;7175;51.978;5.330;2022-11-20T13:40:30;63.20;;;58.30;;
14187;SDS011;7175;51.978;5.330;2022-11-20T13:43:04;63.87;;;58.87;;
14187;SDS011;7175;51.978;5.330;2022-11-20T13:45:53;65.30;;;60.20;;
14187;SDS011;7175;51.978;5.330;2022-11-20T13:48:24;65.40;;;60.20;;
14187;SDS011;7175;51.978;5.330;2022-11-20T13:51:00;69.13;;;63.93;;
14187;SDS011;7175;51.978;5.330;2022-11-20T13:53:49;68.00;;;62.70;;
14187;SDS011;7175;51.978;5.330;2022-11-20T13:56:35;75.83;;;70.17;;
14187;SDS011;7175;51.978;5.330;2022-11-20T13:59:20;74.90;;;69.30;;
14187;SDS011;7175;51.978;5.330;2022-11-20T14:02:02;77.93;;;72.23;;
14187;SDS011;7175;51.978;5.330;2022-11-20T14:04:33;78.37;;;72.43;;
14187;SDS011;7175;51.978;5.330;2022-11-20T14:07:06;76.40;;;70.70;;
14187;SDS011;7175;51.978;5.330;2022-11-20T14:09:34;79.63;;;73.63;;
14187;SDS011;7175;51.978;5.330;2022-11-20T14:12:03;73.50;;;67.80;;
14187;SDS011;7175;51.978;5.330;2022-11-20T14:14:47;74.33;;;68.43;;
14187;SDS011;7175;51.978;5.330;2022-11-20T14:17:19;75.30;;;69.40;;
14187;SDS011;7175;51.978;5.330;2022-11-20T14:19:51;84.60;;;78.40;;
14187;SDS011;7175;51.978;5.330;2022-11-20T14:22:21;80.80;;;74.50;;
14187;SDS011;7175;51.978;5.330;2022-11-20T14:25:00;81.30;;;75.20;;
14187;SDS011;7175;51.978;5.330;2022-11-20T14:27:32;83.37;;;77.17;;
14187;SDS011;7175;51.978;5.330;2022-11-20T14:30:04;83.50;;;77.30;;
14187;SDS011;7175;51.978;5.330;2022-11-20T14:32:34;83.80;;;77.50;;
14187;SDS011;7175;51.978;5.330;2022-11-20T14:35:07;79.50;;;73.40;;
14187;SDS011;7175;51.978;5.330;2022-11-20T14:37:38;83.67;;;76.93;;
14187;SDS011;7175;51.978;5.330;2022-11-20T14:40:21;81.53;;;75.23;;
14187;SDS011;7175;51.978;5.330;2022-11-20T14:42:52;82.73;;;76.40;;
14187;SDS011;7175;51.978;5.330;2022-11-20T14:45:21;88.90;;;82.37;;
14187;SDS011;7175;51.978;5.330;2022-11-20T14:47:53;86.83;;;80.30;;
14187;SDS011;7175;51.978;5.330;2022-11-20T14:50:24;92.87;;;86.13;;
14187;SDS011;7175;51.978;5.330;2022-11-20T14:52:56;92.60;;;85.87;;
14187;SDS011;7175;51.978;5.330;2022-11-20T14:55:27;94.07;;;87.37;;
14187;SDS011;7175;51.978;5.330;2022-11-20T14:57:58;91.63;;;84.97;;
14187;SDS011;7175;51.978;5.330;2022-11-20T15:00:28;95.40;;;88.40;;
14187;SDS011;7175;51.978;5.330;2022-11-20T15:02:59;90.97;;;84.47;;